Time;durP1;ratioP1;P1;durP2;ratioP2;P2;SDS_P1;SDS_P2;PMS_P1;PMS_P2;Temp;Humidity;BMP_temperature;BMP_pressure;BME280_temperature;BME280_humidity;BME280_pressure;Samples;Min_cycle;Max_cycle;Signal;HPM_P1;HPM_P2
2023/08/19 00:00:56;;;;;;;28.55;26.85;;;;;;;19.80;95.42;93170.72;5051731;28;20595;-76
2023/08/19 00:03:23;;;;;;;28.92;27.27;;;;;;;19.87;95.38;93173.81;5050220;28;20094;-76
2023/08/19 00:05:51;;;;;;;29.30;27.70;;;;;;;19.81;95.54;93180.09;5061720;28;20057;-76
2023/08/19 00:08:19;;;;;;;25.80;24.35;;;;;;;19.74;96.25;93172.59;5050139;28;20048;-76
2023/08/19 00:10:52;;;;;;;26.70;25.20;;;;;;;19.60;95.99;93161.16;5051303;28;20059;-77
2023/08/19 00:13:19;;;;;;;27.70;25.88;;;;;;;19.70;95.83;93181.97;5060023;28;20044;-76
2023/08/19 00:15:46;;;;;;;31.38;29.75;;;;;;;19.67;96.16;93185.09;5056201;28;20041;-76
2023/08/19 00:18:12;;;;;;;29.77;28.08;;;;;;;19.66;95.64;93183.53;5049689;28;20094;-77
2023/08/19 00:20:39;;;;;;;32.83;31.08;;;;;;;19.62;96.89;93188.53;5052242;28;20202;-76
2023/08/19 00:23:07;;;;;;;27.58;26.05;;;;;;;19.60;96.37;93179.41;5052711;28;20049;-76
2023/08/19 00:25:34;;;;;;;31.17;29.27;;;;;;;19.50;97.67;93169.81;5050542;28;20048;-77
2023/08/19 00:28:03;;;;;;;31.20;29.50;;;;;;;19.44;97.34;93173.47;5052619;28;20053;-76
2023/08/19 00:30:31;;;;;;;28.50;26.75;;;;;;;19.34;98.56;93167.25;5052969;28;20551;-76
2023/08/19 00:32:57;;;;;;;40.85;38.42;;;;;;;19.29;97.96;93166.47;5061689;28;20080;-76
2023/08/19 00:35:24;;;;;;;33.85;32.00;;;;;;;19.25;98.83;93166.22;5051644;28;20045;-76
2023/08/19 00:37:51;;;;;;;31.33;29.55;;;;;;;19.17;99.45;93166.78;5056459;28;20118;-76
2023/08/19 00:40:19;;;;;;;28.98;27.48;;;;;;;19.07;99.56;93159.78;5053953;28;20110;-76
2023/08/19 00:42:45;;;;;;;27.33;25.83;;;;;;;19.15;99.86;93167.03;5049152;28;20541;-76
2023/08/19 00:45:12;;;;;;;29.15;27.60;;;;;;;19.11;99.60;93160.78;5054514;28;20052;-76
2023/08/19 00:47:40;;;;;;;42.33;40.22;;;;;;;19.10;99.46;93164.44;5055967;28;20052;-76
2023/08/19 00:50:11;;;;;;;32.70;30.75;;;;;;;19.06;100.00;93174.59;5052891;28;20041;-76
2023/08/19 00:52:39;;;;;;;27.00;25.42;;;;;;;19.08;100.00;93169.16;5050240;28;20049;-77
2023/08/19 00:55:07;;;;;;;32.15;30.33;;;;;;;18.85;100.00;93137.41;5052934;28;20049;-76
2023/08/19 00:57:36;;;;;;;30.00;28.40;;;;;;;18.99;100.00;93168.09;5061357;28;20489;-76
2023/08/19 01:00:03;;;;;;;30.02;28.35;;;;;;;18.95;100.00;93158.22;5051657;28;21423;-76
2023/08/19 01:02:30;;;;;;;32.50;30.73;;;;;;;18.99;100.00;93155.06;5049106;28;20041;-76
2023/08/19 01:04:57;;;;;;;28.38;26.83;;;;;;;18.91;100.00;93159.78;5051701;28;20045;-76
2023/08/19 01:07:31;;;;;;;31.40;29.63;;;;;;;18.88;100.00;93159.53;5049255;28;20505;-76
2023/08/19 01:10:04;;;;;;;30.30;28.55;;;;;;;18.92;100.00;93160.53;5050300;28;20095;-76
2023/08/19 01:12:40;;;;;;;30.80;29.08;;;;;;;18.84;100.00;93161.84;5054486;28;20116;-76
2023/08/19 01:15:11;;;;;;;32.55;30.77;;;;;;;18.74;100.00;93161.88;5050349;28;20045;-76
2023/08/19 01:17:38;;;;;;;34.17;32.28;;;;;;;18.80;100.00;93159.00;5050226;28;20067;-76
2023/08/19 01:20:08;;;;;;;32.60;30.80;;;;;;;18.75;100.00;93156.38;5059829;28;20118;-76
2023/08/19 01:22:45;;;;;;;37.08;35.22;;;;;;;18.56;100.00;93132.72;5048252;28;20059;-76
2023/08/19 01:25:13;;;;;;;48.38;45.95;;;;;;;18.78;100.00;93161.09;5054814;28;20080;-76
2023/08/19 01:27:40;;;;;;;51.53;48.97;;;;;;;18.70;100.00;93156.38;5049822;28;20060;-76
2023/08/19 01:30:08;;;;;;;79.13;75.47;;;;;;;18.54;100.00;93153.81;5048665;28;20052;-76
2023/08/19 01:32:35;;;;;;;72.05;68.45;;;;;;;18.45;100.00;93159.78;5052837;28;20094;-76
2023/08/19 01:35:02;;;;;;;80.93;77.15;;;;;;;18.35;100.00;93157.97;5052491;28;20515;-76
2023/08/19 01:37:34;;;;;;;91.95;87.50;;;;;;;18.37;100.00;93155.91;5055528;28;20032;-76
2023/08/19 01:40:02;;;;;;;81.38;77.30;;;;;;;18.41;100.00;93147.31;5051571;28;20040;-76
2023/08/19 01:42:33;;;;;;;103.32;98.70;;;;;;;18.38;100.00;93155.63;5049518;28;20573;-76
2023/08/19 01:45:01;;;;;;;102.35;97.75;;;;;;;18.39;100.00;93149.41;5059291;28;20041;-76
2023/08/19 01:47:28;;;;;;;96.88;92.38;;;;;;;18.34;100.00;93138.19;5048759;28;20045;-76
2023/08/19 01:49:55;;;;;;;78.57;74.93;;;;;;;18.38;100.00;93152.25;5055271;28;20078;-76
2023/08/19 01:52:22;;;;;;;71.30;67.82;;;;;;;18.38;100.00;93147.81;5049226;28;20107;-76
2023/08/19 01:54:48;;;;;;;58.20;55.30;;;;;;;18.37;100.00;93148.09;5049462;28;20053;-76
2023/08/19 01:57:15;;;;;;;90.55;86.35;;;;;;;18.34;100.00;93148.59;5057679;28;20136;-76
2023/08/19 01:59:43;;;;;;;78.10;74.32;;;;;;;18.30;100.00;93149.09;5050907;28;20452;-77
2023/08/19 02:02:10;;;;;;;111.05;105.85;;;;;;;18.23;100.00;93146.00;5047924;28;20056;-77
2023/08/19 02:04:36;;;;;;;78.63;74.93;;;;;;;18.23;100.00;93158.22;5062616;28;20449;-77
2023/08/19 02:07:03;;;;;;;87.85;83.90;;;;;;;18.14;100.00;93161.31;5055097;28;20056;-77
2023/08/19 02:09:30;;;;;;;63.83;60.40;;;;;;;18.15;100.00;93165.47;5047373;28;20040;-77
2023/08/19 02:11:57;;;;;;;74.00;70.32;;;;;;;18.18;100.00;93166.03;5053349;28;20052;-77
2023/08/19 02:14:24;;;;;;;95.47;91.15;;;;;;;18.07;100.00;93153.00;5054753;28;20041;-77
2023/08/19 02:16:52;;;;;;;64.65;61.60;;;;;;;18.13;100.00;93158.97;5050991;28;20095;-77
2023/08/19 02:19:19;;;;;;;103.22;98.43;;;;;;;18.12;100.00;93154.81;5052050;28;20447;-77
2023/08/19 02:21:45;;;;;;;80.53;76.72;;;;;;;18.09;100.00;93150.91;5050122;28;20136;-77
2023/08/19 02:24:12;;;;;;;134.75;128.65;;;;;;;17.86;100.00;93124.34;5050636;28;20044;-77
2023/08/19 02:26:39;;;;;;;115.90;110.68;;;;;;;17.98;100.00;93159.69;5048866;28;20125;-77
2023/08/19 02:29:05;;;;;;;115.25;110.05;;;;;;;17.91;100.00;93157.34;5050202;28;20048;-77
2023/08/19 02:31:32;;;;;;;110.05;105.18;;;;;;;17.92;100.00;93147.75;5051204;28;20048;-77
2023/08/19 02:34:00;;;;;;;104.57;99.70;;;;;;;17.89;100.00;93151.63;5052282;28;20489;-76
2023/08/19 02:36:27;;;;;;;124.75;119.13;;;;;;;17.83;100.00;93157.84;5048761;28;20469;-77
2023/08/19 02:38:54;;;;;;;154.07;147.30;;;;;;;17.71;100.00;93155.47;5054121;28;20048;-76
2023/08/19 02:41:20;;;;;;;131.30;125.55;;;;;;;17.73;100.00;93151.59;5053667;28;20398;-76
2023/08/19 02:43:47;;;;;;;134.35;128.30;;;;;;;17.74;100.00;93152.38;5054549;28;20213;-76
2023/08/19 02:46:14;;;;;;;136.63;130.38;;;;;;;17.68;100.00;93145.59;5052210;28;20045;-76
2023/08/19 02:48:40;;;;;;;120.85;115.55;;;;;;;17.72;100.00;93154.44;5054266;28;20056;-76
2023/08/19 02:51:08;;;;;;;142.23;135.65;;;;;;;17.68;100.00;93158.59;5048737;28;20057;-76
2023/08/19 02:53:35;;;;;;;154.07;147.30;;;;;;;17.62;100.00;93160.38;5050877;28;20045;-76
2023/08/19 02:56:05;;;;;;;149.45;142.73;;;;;;;17.56;100.00;93167.38;5047574;28;20140;-76
2023/08/19 02:58:32;;;;;;;156.88;150.13;;;;;;;17.50;100.00;93160.63;5055695;28;20090;-76
2023/08/19 03:00:58;;;;;;;145.63;139.30;;;;;;;17.40;100.00;93143.16;5048993;28;20417;-76
2023/08/19 03:03:27;;;;;;;126.18;120.35;;;;;;;17.44;100.00;93161.59;5046936;28;20489;-76
2023/08/19 03:05:58;;;;;;;117.97;112.68;;;;;;;17.25;100.00;93133.50;5054548;28;20136;-76
2023/08/19 03:08:26;;;;;;;152.07;145.30;;;;;;;17.36;100.00;93162.91;5047121;28;20049;-76
2023/08/19 03:10:53;;;;;;;176.07;168.00;;;;;;;17.35;100.00;93156.13;5050891;28;20090;-75
2023/08/19 03:13:20;;;;;;;149.57;142.98;;;;;;;17.31;100.00;93160.28;5049730;28;20057;-76
2023/08/19 03:15:47;;;;;;;147.02;140.43;;;;;;;17.21;100.00;93156.56;5050861;28;20118;-76
2023/08/19 03:18:14;;;;;;;117.93;112.57;;;;;;;17.15;100.00;93162.00;5049225;28;20053;-76
2023/08/19 03:20:41;;;;;;;164.63;157.27;;;;;;;17.07;100.00;93152.84;5059998;28;20569;-76
2023/08/19 03:23:08;;;;;;;133.30;126.93;;;;;;;17.08;100.00;93154.44;5047369;28;20053;-76
2023/08/19 03:25:36;;;;;;;120.13;114.32;;;;;;;17.09;100.00;93161.97;5052000;28;20049;-76
2023/08/19 03:28:03;;;;;;;164.57;156.98;;;;;;;17.10;100.00;93165.34;5058587;28;20126;-76
2023/08/19 03:30:30;;;;;;;146.60;139.90;;;;;;;17.06;100.00;93165.06;5050049;28;20041;-76
2023/08/19 03:32:56;;;;;;;136.07;129.90;;;;;;;17.07;100.00;93164.03;5056339;28;20095;-76
2023/08/19 03:35:23;;;;;;;146.60;139.82;;;;;;;17.07;100.00;93158.84;5051827;28;20468;-76
2023/08/19 03:37:50;;;;;;;170.75;163.25;;;;;;;17.03;100.00;93162.97;5051739;28;20098;-76
2023/08/19 03:40:16;;;;;;;195.65;186.95;;;;;;;17.02;100.00;93158.78;5053039;28;20091;-76
2023/08/19 03:42:44;;;;;;;150.68;144.00;;;;;;;17.00;100.00;93163.44;5050499;28;20053;-76
2023/08/19 03:45:11;;;;;;;134.52;128.35;;;;;;;16.75;100.00;93125.16;5053430;28;20134;-76
2023/08/19 03:47:38;;;;;;;155.73;148.95;;;;;;;16.94;100.00;93162.63;5050610;28;20459;-76
2023/08/19 03:50:05;;;;;;;157.73;150.57;;;;;;;16.88;100.00;93163.63;5050672;28;20049;-76
2023/08/19 03:52:32;;;;;;;129.35;123.43;;;;;;;16.90;100.00;93168.56;5052660;28;20041;-76
2023/08/19 03:54:59;;;;;;;153.32;146.48;;;;;;;16.83;100.00;93169.56;5062505;28;20089;-76
2023/08/19 03:57:25;;;;;;;177.70;169.88;;;;;;;16.89;100.00;93170.38;5054022;28;20103;-76
2023/08/19 03:59:54;;;;;;;128.07;121.88;;;;;;;16.89;100.00;93169.59;5059573;28;20094;-76
2023/08/19 04:02:20;;;;;;;198.15;189.35;;;;;;;16.89;100.00;93167.78;5055915;28;20603;-76
2023/08/19 04:04:57;;;;;;;161.15;153.93;;;;;;;16.88;100.00;93162.84;5058156;28;21193;-76
2023/08/19 04:07:24;;;;;;;177.23;169.60;;;;;;;16.90;100.00;93163.38;5060005;28;20483;-76
2023/08/19 04:09:51;;;;;;;173.98;165.93;;;;;;;16.91;100.00;93170.94;5055777;28;20500;-76
2023/08/19 04:12:18;;;;;;;189.10;180.60;;;;;;;16.91;100.00;93162.34;5052299;28;20679;-76
2023/08/19 04:14:44;;;;;;;187.25;178.80;;;;;;;16.91;100.00;93170.94;5056578;28;20500;-76
2023/08/19 04:17:12;;;;;;;155.00;148.23;;;;;;;16.89;100.00;93174.78;5050150;28;20655;-76
2023/08/19 04:19:39;;;;;;;173.43;165.73;;;;;;;16.92;100.00;93166.50;5051496;28;20457;-76
2023/08/19 04:22:06;;;;;;;202.02;193.07;;;;;;;17.00;100.00;93170.44;5050377;28;20451;-76
2023/08/19 04:24:33;;;;;;;189.20;180.55;;;;;;;17.02;100.00;93182.13;5052600;28;20049;-76
2023/08/19 04:27:00;;;;;;;183.05;174.75;;;;;;;16.94;100.00;93159.28;5049610;28;20676;-76
2023/08/19 04:29:28;;;;;;;181.88;173.93;;;;;;;16.87;100.00;93154.28;5053698;28;20057;-76
2023/08/19 04:31:55;;;;;;;162.73;155.27;;;;;;;17.13;100.00;93177.03;5051455;28;20123;-76
2023/08/19 04:34:23;;;;;;;154.13;147.15;;;;;;;17.08;100.00;93170.78;5049995;28;20455;-77
2023/08/19 04:36:49;;;;;;;182.70;174.27;;;;;;;17.19;100.00;93184.63;5053685;28;20040;-77
2023/08/19 04:39:16;;;;;;;176.90;169.13;;;;;;;17.21;100.00;93186.94;5051669;28;20049;-77
2023/08/19 04:41:43;;;;;;;162.32;154.30;;;;;;;17.23;100.00;93185.66;5057111;28;20048;-77
2023/08/19 04:44:10;;;;;;;178.38;170.55;;;;;;;17.32;100.00;93195.56;5054493;28;20049;-77
2023/08/19 04:46:36;;;;;;;147.65;140.88;;;;;;;17.35;100.00;93188.06;5052350;28;20390;-77
2023/08/19 04:49:03;;;;;;;161.55;154.10;;;;;;;17.39;100.00;93195.34;5053099;28;20048;-76
2023/08/19 04:51:32;;;;;;;126.13;120.47;;;;;;;17.44;100.00;93201.34;5053076;28;20488;-76
2023/08/19 04:53:59;;;;;;;136.65;130.30;;;;;;;17.48;100.00;93192.03;5052234;28;20087;-77
2023/08/19 04:56:26;;;;;;;129.07;122.88;;;;;;;17.55;100.00;93194.38;5053192;28;20040;-76
2023/08/19 04:58:52;;;;;;;106.80;101.75;;;;;;;17.59;100.00;93192.06;5051105;28;20489;-76
2023/08/19 05:01:20;;;;;;;151.65;144.60;;;;;;;17.58;100.00;93183.50;5049485;28;20448;-76
2023/08/19 05:03:46;;;;;;;99.38;94.88;;;;;;;17.71;100.00;93192.63;5048888;28;20181;-76
2023/08/19 05:06:13;;;;;;;129.85;123.68;;;;;;;17.67;100.00;93180.41;5050199;28;20106;-76
2023/08/19 05:08:41;;;;;;;123.68;118.07;;;;;;;17.85;100.00;93199.94;5046424;28;20053;-76
2023/08/19 05:11:08;;;;;;;136.82;130.63;;;;;;;17.92;100.00;93197.09;5052786;28;20056;-76
2023/08/19 05:13:34;;;;;;;117.40;111.78;;;;;;;18.01;100.00;93200.78;5051643;28;20041;-76
2023/08/19 05:16:02;;;;;;;132.27;125.82;;;;;;;18.06;100.00;93197.41;5051937;28;20086;-76
2023/08/19 05:18:29;;;;;;;94.80;90.28;;;;;;;18.15;100.00;93194.06;5047771;28;20049;-76
2023/08/19 05:21:02;;;;;;;114.20;108.82;;;;;;;18.18;100.00;93192.78;5048406;28;20044;-76
2023/08/19 05:23:29;;;;;;;109.68;103.43;;;;;;;18.29;100.00;93199.56;5060066;28;20056;-76
2023/08/19 05:25:57;;;;;;;120.13;114.53;;;;;;;18.27;100.00;93183.44;5055405;28;20109;-77
2023/08/19 05:28:24;;;;;;;90.32;85.85;;;;;;;18.46;100.00;93197.78;5048026;28;20120;-76
2023/08/19 05:30:50;;;;;;;112.85;107.30;;;;;;;18.55;100.00;93204.78;5051938;28;20455;-76
2023/08/19 05:33:17;;;;;;;107.32;102.32;;;;;;;18.55;100.00;93186.59;5059070;28;20053;-77
2023/08/19 05:35:44;;;;;;;102.72;97.28;;;;;;;18.65;100.00;93200.66;5055298;28;20048;-76
2023/08/19 05:38:10;;;;;;;96.53;91.93;;;;;;;18.70;100.00;93200.63;5058003;28;20053;-77
2023/08/19 05:40:37;;;;;;;80.35;76.55;;;;;;;18.71;100.00;93194.41;5055897;28;20432;-77
2023/08/19 05:43:05;;;;;;;96.18;91.40;;;;;;;18.80;100.00;93199.84;5061530;28;20052;-77
2023/08/19 05:45:33;;;;;;;100.65;95.70;;;;;;;18.74;100.00;93160.03;5050519;28;20074;-77
2023/08/19 05:48:00;;;;;;;75.32;71.65;;;;;;;19.04;100.00;93187.13;5050237;28;20190;-77
2023/08/19 05:50:27;;;;;;;64.95;61.60;;;;;;;19.14;100.00;93178.50;5047766;28;20470;-77
2023/08/19 05:52:54;;;;;;;57.33;54.25;;;;;;;19.24;100.00;93180.28;5049929;28;20099;-77
2023/08/19 05:55:21;;;;;;;62.42;59.38;;;;;;;19.35;100.00;93171.41;5048251;28;20057;-77
2023/08/19 05:57:47;;;;;;;81.38;77.40;;;;;;;19.45;100.00;93165.38;5058723;28;20045;-77
2023/08/19 06:00:16;;;;;;;69.38;65.93;;;;;;;19.61;100.00;93171.34;5056837;28;20099;-77
2023/08/19 06:02:43;;;;;;;56.90;53.90;;;;;;;19.74;100.00;93184.81;5054803;28;20395;-77
2023/08/19 06:05:10;;;;;;;50.00;47.38;;;;;;;19.90;100.00;93182.91;5056303;28;20106;-76
2023/08/19 06:07:37;;;;;;;53.72;51.10;;;;;;;20.06;99.50;93188.88;5051779;28;20131;-77
2023/08/19 06:10:05;;;;;;;51.58;48.70;;;;;;;20.23;98.22;93182.53;5060487;28;20055;-77
2023/08/19 06:12:31;;;;;;;48.08;44.97;;;;;;;20.42;97.25;93191.25;5057860;28;20052;-76
2023/08/19 06:14:58;;;;;;;53.78;50.85;;;;;;;20.56;96.04;93182.81;5066987;28;20117;-77
2023/08/19 06:17:26;;;;;;;36.78;34.88;;;;;;;20.66;95.08;93190.56;5061730;28;20090;-76
2023/08/19 06:19:53;;;;;;;37.60;35.45;;;;;;;20.91;93.52;93193.25;5053839;28;20111;-76
2023/08/19 06:22:19;;;;;;;27.40;25.65;;;;;;;20.99;92.18;93202.34;5065107;28;20376;-76
2023/08/19 06:24:46;;;;;;;22.55;21.15;;;;;;;21.23;90.36;93199.75;5062042;28;20057;-76
2023/08/19 06:27:13;;;;;;;23.10;21.50;;;;;;;21.47;88.37;93199.78;5047475;28;20103;-76
2023/08/19 06:29:40;;;;;;;23.33;21.55;;;;;;;21.66;88.18;93188.59;5047037;28;20091;-76
2023/08/19 06:32:07;;;;;;;23.30;21.67;;;;;;;21.96;86.30;93201.59;5065731;28;20825;-76
2023/08/19 06:34:36;;;;;;;16.45;15.32;;;;;;;22.22;85.67;93206.50;5061985;28;20090;-76
2023/08/19 06:37:05;;;;;;;19.42;16.23;;;;;;;22.48;82.36;93209.53;5053265;28;20087;-76
2023/08/19 06:39:34;;;;;;;15.10;14.00;;;;;;;22.77;82.49;93215.69;5066929;28;20068;-76
2023/08/19 06:42:03;;;;;;;10.85;9.95;;;;;;;23.04;80.17;93211.56;5060457;28;20086;-74
2023/08/19 06:44:31;;;;;;;10.23;9.02;;;;;;;23.14;75.95;93205.41;5059901;28;20056;-74
2023/08/19 06:47:00;;;;;;;10.93;9.00;;;;;;;23.38;76.39;93204.50;5058662;28;20443;-74
2023/08/19 06:49:38;;;;;;;11.40;7.72;;;;;;;23.55;76.56;93194.19;5050976;28;20045;-74
2023/08/19 06:52:06;;;;;;;8.65;7.75;;;;;;;23.86;76.91;93200.69;5067234;28;20045;-74
2023/08/19 06:54:49;;;;;;;12.85;7.63;;;;;;;24.01;73.56;93184.66;5064790;28;20404;-74
2023/08/19 06:57:25;;;;;;;5.97;5.47;;;;;;;24.10;70.36;93199.72;5055321;28;20590;-74
2023/08/19 06:59:56;;;;;;;5.97;5.38;;;;;;;24.17;67.93;93196.69;5053598;28;20052;-74
2023/08/19 07:02:24;;;;;;;8.50;5.63;;;;;;;24.15;69.30;93192.53;5057783;28;20471;-74
2023/08/19 07:04:53;;;;;;;6.20;5.68;;;;;;;24.32;70.05;93193.75;5059951;28;20496;-74
2023/08/19 07:07:24;;;;;;;8.88;6.22;;;;;;;24.38;68.44;93191.75;5070097;28;20056;-74
2023/08/19 07:09:52;;;;;;;5.90;5.10;;;;;;;24.58;68.67;93190.53;5070558;28;20064;-74
2023/08/19 07:12:19;;;;;;;6.63;5.72;;;;;;;24.72;67.43;93195.75;5055529;28;20049;-74
2023/08/19 07:14:47;;;;;;;8.50;5.70;;;;;;;24.90;67.60;93193.25;5060151;28;20941;-74
2023/08/19 07:20:38;;;;;;;5.80;4.43;;;;;;;25.20;62.63;93186.44;5057451;28;20131;-75
2023/08/19 07:23:07;;;;;;;5.00;4.43;;;;;;;25.56;60.12;93192.66;5070464;28;20056;-74
2023/08/19 07:25:35;;;;;;;5.97;4.85;;;;;;;25.87;60.67;93191.03;5063412;28;20051;-74
2023/08/19 07:28:04;;;;;;;6.07;5.57;;;;;;;25.95;60.64;93187.63;5063585;28;20069;-75
2023/08/19 07:30:32;;;;;;;5.03;4.53;;;;;;;26.21;57.76;93183.47;5069947;28;20071;-74
2023/08/19 07:32:59;;;;;;;4.72;4.22;;;;;;;26.45;57.45;93198.06;5056823;28;20048;-77
2023/08/19 07:35:26;;;;;;;6.93;5.47;;;;;;;26.46;57.40;93191.72;5064891;28;20802;-74
2023/08/19 07:37:55;;;;;;;7.43;5.13;;;;;;;26.86;56.50;93194.19;5069712;28;20048;-75
2023/08/19 07:40:21;;;;;;;4.78;4.32;;;;;;;27.05;54.17;93191.22;5059163;28;20041;-75
2023/08/19 07:42:48;;;;;;;7.80;4.88;;;;;;;27.41;55.91;93201.66;5062477;28;20067;-75
2023/08/19 07:45:15;;;;;;;7.47;4.93;;;;;;;27.71;53.56;93202.47;5063217;28;20067;-75
2023/08/19 07:47:42;;;;;;;6.70;4.75;;;;;;;27.97;51.23;93200.78;5057453;28;20052;-74
2023/08/19 07:50:09;;;;;;;5.13;4.63;;;;;;;28.10;46.97;93207.69;5056998;28;20055;-74
2023/08/19 07:52:36;;;;;;;4.93;4.43;;;;;;;28.33;46.27;93198.72;5058608;28;20063;-75
2023/08/19 07:55:05;;;;;;;6.72;4.65;;;;;;;28.62;46.43;93200.53;5058313;28;20583;-74
2023/08/19 07:57:32;;;;;;;6.00;4.00;;;;;;;28.22;44.38;93201.72;5069707;28;20599;-74
2023/08/19 07:59:59;;;;;;;3.47;3.03;;;;;;;27.91;43.27;93200.19;5062396;28;20050;-75
2023/08/19 08:02:26;;;;;;;5.07;3.55;;;;;;;28.14;42.03;93195.41;5057617;28;20086;-75
2023/08/19 08:04:53;;;;;;;7.82;3.30;;;;;;;28.55;44.84;93189.69;5069417;28;20049;-74
2023/08/19 08:07:20;;;;;;;3.83;3.38;;;;;;;28.78;43.88;93191.97;5057211;28;20045;-75
2023/08/19 08:09:47;;;;;;;6.18;4.00;;;;;;;28.87;42.06;93162.84;5064687;28;20175;-75
2023/08/19 08:12:16;;;;;;;3.67;3.28;;;;;;;28.53;40.22;93176.81;5067603;28;20052;-74
2023/08/19 08:14:43;;;;;;;3.33;2.65;;;;;;;27.98;42.44;93192.56;5056176;28;20063;-74
2023/08/19 08:17:10;;;;;;;2.78;2.30;;;;;;;28.23;41.04;93198.00;5066545;28;20055;-74
2023/08/19 08:19:38;;;;;;;4.60;2.65;;;;;;;28.34;39.77;93200.25;5054641;28;20059;-75
2023/08/19 08:22:05;;;;;;;2.80;2.15;;;;;;;28.60;41.17;93192.13;5062568;28;20106;-74
2023/08/19 08:24:32;;;;;;;2.42;2.15;;;;;;;27.99;39.94;93198.59;5056215;28;20048;-74
2023/08/19 08:26:59;;;;;;;3.38;2.63;;;;;;;27.54;40.81;93200.66;5057587;28;20045;-74
2023/08/19 08:29:27;;;;;;;2.80;2.15;;;;;;;27.29;41.34;93179.34;5062120;28;20075;-73
2023/08/19 08:31:54;;;;;;;5.78;2.53;;;;;;;27.35;41.44;93186.00;5060287;28;20054;-74
2023/08/19 08:34:21;;;;;;;2.85;2.00;;;;;;;27.29;42.18;93197.03;5063767;28;20041;-75
2023/08/19 08:36:48;;;;;;;4.60;2.55;;;;;;;27.57;41.56;93199.25;5058997;28;20421;-74
2023/08/19 08:39:15;;;;;;;2.78;2.17;;;;;;;27.92;41.51;93195.69;5068495;28;20076;-74
2023/08/19 08:41:42;;;;;;;2.65;2.42;;;;;;;27.65;41.37;93195.84;5068565;28;20501;-74
2023/08/19 08:44:10;;;;;;;3.00;2.25;;;;;;;27.82;42.90;93194.97;5057444;28;20055;-75
2023/08/19 08:46:40;;;;;;;2.97;2.03;;;;;;;28.03;41.96;93201.41;5053490;28;20049;-74
2023/08/19 08:49:08;;;;;;;2.78;2.03;;;;;;;27.59;42.03;93207.66;5051864;28;20056;-74
2023/08/19 08:51:35;;;;;;;5.10;1.90;;;;;;;27.52;42.54;93207.34;5057828;28;20072;-74
2023/08/19 08:54:03;;;;;;;3.35;2.58;;;;;;;27.73;42.52;93200.28;5059347;28;20052;-75
2023/08/19 08:56:30;;;;;;;3.08;2.75;;;;;;;27.87;42.66;93199.31;5058928;28;20048;-74
2023/08/19 08:58:56;;;;;;;3.42;2.55;;;;;;;28.13;42.45;93193.06;5060674;28;20048;-75
2023/08/19 09:01:26;;;;;;;2.90;2.50;;;;;;;28.40;40.51;93193.69;5068048;28;20044;-74
2023/08/19 09:04:01;;;;;;;3.47;2.78;;;;;;;28.58;40.48;93204.91;5063842;28;20044;-75
2023/08/19 09:06:28;;;;;;;2.20;2.00;;;;;;;28.67;39.04;93205.59;5064202;28;20044;-75
2023/08/19 09:09:01;;;;;;;3.03;2.42;;;;;;;28.79;39.73;93204.09;5052852;28;20052;-76
2023/08/19 09:11:29;;;;;;;3.50;2.65;;;;;;;29.36;39.61;93203.69;5056413;28;20105;-75
2023/08/19 09:14:02;;;;;;;3.40;2.42;;;;;;;29.40;38.83;93200.09;5065925;28;20107;-75
2023/08/19 09:16:29;;;;;;;4.50;2.28;;;;;;;29.47;40.76;93208.25;5056681;28;20448;-75
2023/08/19 09:18:57;;;;;;;3.05;2.17;;;;;;;29.23;40.57;93197.63;5058027;28;20044;-74
2023/08/19 09:21:25;;;;;;;2.80;2.33;;;;;;;29.11;39.33;93198.38;5052663;28;20159;-75
2023/08/19 09:23:52;;;;;;;2.83;2.50;;;;;;;28.86;41.94;93199.06;5065063;28;20106;-75
2023/08/19 09:26:19;;;;;;;3.97;2.42;;;;;;;28.21;42.05;93196.75;5067724;28;20040;-75
2023/08/19 09:28:45;;;;;;;3.08;2.25;;;;;;;28.70;43.14;93190.19;5066873;28;20497;-75
2023/08/19 09:31:20;;;;;;;3.08;2.65;;;;;;;28.70;41.90;93200.75;5065314;28;20052;-74
2023/08/19 09:33:47;;;;;;;3.47;2.30;;;;;;;28.61;41.10;93183.09;5067081;28;20488;-75
2023/08/19 09:36:15;;;;;;;4.28;2.88;;;;;;;29.06;42.98;93194.06;5067992;28;20106;-75
2023/08/19 09:38:42;;;;;;;4.13;2.45;;;;;;;29.25;41.08;93179.56;5064777;28;20102;-75
2023/08/19 09:41:10;;;;;;;3.80;2.10;;;;;;;29.30;41.24;93185.41;5056370;28;20124;-75
2023/08/19 09:43:40;;;;;;;4.10;2.78;;;;;;;29.80;41.67;93179.38;5066924;28;20082;-75
2023/08/19 09:46:07;;;;;;;2.88;2.40;;;;;;;29.25;39.51;93195.44;5056385;28;20091;-75
2023/08/19 09:48:35;;;;;;;3.22;2.40;;;;;;;28.82;39.85;93190.22;5051620;28;20059;-74
2023/08/19 09:51:02;;;;;;;3.10;2.20;;;;;;;28.93;40.92;93201.22;5061045;28;20102;-74
2023/08/19 09:53:31;;;;;;;4.45;2.55;;;;;;;28.98;40.97;93185.13;5065177;28;20128;-75
2023/08/19 09:55:58;;;;;;;3.63;2.20;;;;;;;29.38;41.03;93180.34;5054266;28;20522;-75
2023/08/19 09:58:25;;;;;;;2.67;2.05;;;;;;;29.76;39.36;93189.09;5056882;28;20094;-75
2023/08/19 10:00:51;;;;;;;3.42;2.40;;;;;;;29.42;39.02;93187.28;5067024;28;20583;-74
2023/08/19 10:03:19;;;;;;;3.88;2.50;;;;;;;29.37;40.70;93190.16;5065251;28;20094;-75
2023/08/19 10:05:52;;;;;;;2.60;2.40;;;;;;;29.04;40.50;93189.13;5057523;28;20052;-74
2023/08/19 10:08:20;;;;;;;5.18;3.50;;;;;;;28.90;40.49;93180.69;5064332;28;20048;-75
2023/08/19 10:10:49;;;;;;;3.20;2.58;;;;;;;29.04;40.26;93173.25;5059109;28;20041;-74
2023/08/19 10:13:17;;;;;;;3.00;2.30;;;;;;;28.77;39.29;93191.22;5067787;28;20106;-74
2023/08/19 10:15:44;;;;;;;5.43;2.50;;;;;;;29.11;39.60;93182.50;5060735;28;20500;-76
2023/08/19 10:18:16;;;;;;;3.05;2.60;;;;;;;29.31;39.04;93184.31;5054026;28;20049;-75
2023/08/19 10:20:44;;;;;;;3.17;2.50;;;;;;;29.57;38.95;93190.44;5058087;28;20052;-75
2023/08/19 10:23:13;;;;;;;6.75;6.25;;;;;;;29.27;39.80;93188.72;5066955;28;20052;-75
2023/08/19 10:25:42;;;;;;;3.80;2.45;;;;;;;29.18;39.88;93169.50;5060246;28;20098;-75
2023/08/19 10:28:13;;;;;;;3.88;3.22;;;;;;;28.83;39.48;93178.53;5055932;28;20373;-75
2023/08/19 10:30:40;;;;;;;3.17;2.63;;;;;;;28.97;39.80;93175.63;5057767;28;20091;-74
2023/08/19 10:33:29;;;;;;;4.47;2.22;;;;;;;28.74;39.78;93177.88;5051477;28;20783;-75
2023/08/19 10:36:01;;;;;;;4.22;2.95;;;;;;;28.47;40.57;93161.47;5062069;28;20448;-75
2023/08/19 10:38:44;;;;;;;3.30;2.40;;;;;;;29.08;40.81;93173.38;5066894;28;20044;-76
2023/08/19 10:41:26;;;;;;;3.92;2.47;;;;;;;29.19;40.96;93179.78;5071226;28;20049;-75
2023/08/19 10:43:58;;;;;;;5.25;2.97;;;;;;;29.41;40.26;93175.16;5061770;28;20394;-75
2023/08/19 10:46:31;;;;;;;4.75;2.63;;;;;;;29.87;40.28;93174.31;5062622;28;20094;-75
2023/08/19 10:48:57;;;;;;;4.25;2.60;;;;;;;30.11;38.55;93164.78;5049787;28;20497;-75
2023/08/19 10:51:50;;;;;;;2.75;2.33;;;;;;;30.28;39.23;93169.06;5051542;28;20408;-75
2023/08/19 10:54:26;;;;;;;2.88;2.47;;;;;;;30.51;36.50;93165.91;5052038;28;20385;-76
2023/08/19 10:56:53;;;;;;;5.63;2.70;;;;;;;30.85;37.50;93163.00;5050400;28;20449;-76
2023/08/19 10:59:22;;;;;;;3.60;2.55;;;;;;;31.13;36.69;93160.31;5050323;28;20053;-74
2023/08/19 11:01:48;;;;;;;2.70;2.40;;;;;;;30.82;37.57;93167.09;5056273;28;20576;-75
2023/08/19 11:04:16;;;;;;;2.85;2.65;;;;;;;30.52;37.49;93170.88;5050549;28;20489;-75
2023/08/19 11:06:42;;;;;;;4.30;2.83;;;;;;;29.99;36.66;93176.94;5054264;28;20063;-75
2023/08/19 11:09:09;;;;;;;3.33;2.58;;;;;;;30.56;37.48;93164.88;5062602;28;20040;-75
2023/08/19 11:11:36;;;;;;;4.78;2.83;;;;;;;31.10;38.96;93142.41;5070187;28;20052;-74
2023/08/19 11:14:05;;;;;;;3.97;2.45;;;;;;;30.81;36.25;93162.91;5055543;28;20036;-75
2023/08/19 11:16:33;;;;;;;3.58;2.25;;;;;;;30.89;36.70;93147.97;5061462;28;20394;-75
2023/08/19 11:19:02;;;;;;;3.15;2.42;;;;;;;31.06;36.63;93157.50;5062548;28;20831;-75
2023/08/19 11:21:29;;;;;;;4.07;2.60;;;;;;;30.97;35.67;93162.97;5055673;28;20048;-75